createdAt,value
2023-02-13T00:01:10.549Z,35.65
2023-02-13T00:03:53.904Z,36.60
2023-02-13T00:30:26.091Z,36.08
2023-02-13T00:32:57.741Z,31.98
2023-02-13T00:35:28.858Z,31.70
2023-02-13T00:37:59.206Z,26.20
2023-02-13T00:40:29.760Z,40.95
2023-02-13T00:43:00.797Z,30.45
2023-02-13T00:45:30.855Z,30.80
2023-02-13T00:48:02.832Z,35.35
2023-02-13T00:50:33.309Z,29.17
2023-02-13T00:53:04.121Z,27.55
2023-02-13T00:55:37.354Z,32.40
2023-02-13T00:58:07.680Z,33.72
2023-02-13T01:00:38.808Z,35.45
2023-02-13T01:03:10.864Z,31.80
2023-02-13T01:05:42.039Z,31.35
2023-02-13T01:08:17.657Z,25.00
2023-02-13T01:10:49.618Z,39.75
2023-02-13T01:13:20.585Z,29.90
2023-02-13T01:15:51.042Z,40.05
2023-02-13T01:18:22.942Z,39.67
2023-02-13T01:21:09.742Z,34.25
2023-02-13T01:23:40.676Z,37.88
2023-02-13T01:26:32.919Z,35.47
2023-02-13T01:31:46.400Z,37.65
2023-02-13T01:34:17.205Z,38.67
2023-02-13T01:36:47.602Z,43.72
2023-02-13T01:39:17.637Z,32.78
2023-02-13T01:41:48.653Z,48.65
2023-02-13T01:45:01.804Z,41.78
2023-02-13T01:47:45.155Z,26.13
2023-02-13T01:50:21.771Z,40.33
2023-02-13T01:53:19.190Z,42.17
2023-02-13T01:56:03.109Z,39.00
2023-02-13T01:58:39.900Z,47.67
2023-02-13T02:01:12.179Z,42.78
2023-02-13T02:03:50.988Z,43.20
2023-02-13T02:06:34.147Z,32.30
2023-02-13T02:09:09.989Z,20.10
2023-02-13T02:11:58.605Z,13.02
2023-02-13T02:14:32.889Z,13.70
2023-02-13T02:17:03.269Z,9.68
2023-02-13T02:19:50.617Z,11.27
2023-02-13T02:22:44.560Z,7.38
2023-02-13T02:25:41.423Z,11.95
2023-02-13T02:28:16.376Z,7.70
2023-02-13T02:31:02.909Z,11.25
2023-02-13T02:34:04.040Z,9.77
2023-02-13T02:37:26.428Z,10.82
2023-02-13T02:40:24.744Z,9.30
2023-02-13T02:43:06.937Z,7.00
2023-02-13T02:45:56.497Z,7.72
2023-02-13T02:49:07.375Z,10.43
2023-02-13T02:52:03.180Z,5.82
2023-02-13T02:55:10.416Z,7.47
2023-02-13T02:58:31.208Z,5.90
2023-02-13T03:01:44.168Z,7.72
2023-02-13T03:05:02.811Z,8.85
2023-02-13T03:07:34.603Z,9.98
2023-02-13T03:10:32.509Z,8.50
2023-02-13T03:13:35.745Z,10.77
2023-02-13T03:16:25.124Z,9.00
2023-02-13T03:19:17.577Z,7.05
2023-02-13T03:22:19.060Z,8.20
2023-02-13T03:25:07.530Z,4.30
2023-02-13T03:28:08.156Z,6.13
2023-02-13T03:31:01.356Z,7.32
2023-02-13T03:33:49.779Z,6.70
2023-02-13T03:36:52.062Z,8.52
2023-02-13T03:39:46.051Z,7.75
2023-02-13T03:42:36.752Z,7.75
2023-02-13T03:45:56.620Z,12.23
2023-02-13T03:48:55.642Z,6.30
2023-02-13T03:51:38.621Z,5.47
2023-02-13T03:54:57.936Z,6.32
2023-02-13T03:57:54.015Z,6.50
2023-02-13T04:00:24.589Z,10.07
2023-02-13T04:03:08.935Z,7.05
2023-02-13T04:05:46.155Z,9.88
2023-02-13T04:08:16.491Z,7.70
2023-02-13T04:10:59.577Z,9.68
2023-02-13T04:14:03.463Z,6.45
2023-02-13T04:16:41.593Z,9.82
2023-02-13T04:19:12.816Z,7.97
2023-02-13T04:21:44.346Z,9.00
2023-02-13T04:24:15.958Z,7.63
2023-02-13T04:26:48.748Z,8.75
2023-02-13T04:29:20.135Z,7.07
2023-02-13T04:31:59.332Z,7.25
2023-02-13T04:34:30.826Z,6.03
2023-02-13T04:37:01.713Z,8.00
2023-02-13T04:39:32.477Z,8.32
2023-02-13T04:42:02.998Z,5.45
2023-02-13T04:44:33.800Z,6.35
2023-02-13T04:47:04.605Z,7.55
2023-02-13T04:49:35.657Z,5.50
2023-02-13T04:52:06.134Z,6.25
2023-02-13T04:54:36.208Z,4.35
2023-02-13T04:57:07.237Z,5.88
2023-02-13T04:59:37.582Z,5.25
2023-02-13T05:02:08.278Z,8.25
2023-02-13T05:04:40.084Z,7.38
2023-02-13T05:07:10.163Z,5.95
2023-02-13T05:09:51.385Z,5.40
2023-02-13T05:12:21.757Z,3.33
2023-02-13T05:14:53.269Z,9.18
2023-02-13T05:17:31.778Z,4.38
2023-02-13T05:20:02.158Z,6.47
2023-02-13T05:22:50.240Z,7.93
2023-02-13T05:25:30.119Z,6.25
2023-02-13T05:28:00.587Z,6.03
2023-02-13T05:30:31.798Z,5.78
2023-02-13T05:33:02.867Z,8.48
2023-02-13T05:35:33.366Z,7.57
2023-02-13T05:38:03.398Z,9.75
2023-02-13T05:40:35.764Z,7.97
2023-02-13T05:43:05.931Z,8.35
2023-02-13T05:45:36.701Z,7.60
2023-02-13T05:48:33.139Z,10.65
2023-02-13T05:51:05.011Z,8.63
2023-02-13T05:53:39.182Z,12.93
2023-02-13T05:56:09.641Z,10.73
2023-02-13T05:58:39.907Z,12.38
2023-02-13T06:01:11.050Z,11.13
2023-02-13T06:04:04.290Z,10.07
2023-02-13T06:06:34.726Z,9.15
2023-02-13T06:09:06.826Z,9.52
2023-02-13T06:11:37.649Z,9.85
2023-02-13T06:14:07.756Z,9.05
2023-02-13T06:16:53.494Z,7.15
2023-02-13T06:19:24.011Z,7.28
2023-02-13T06:21:55.734Z,8.13
2023-02-13T06:24:27.213Z,8.15
2023-02-13T06:27:17.970Z,6.85
2023-02-13T06:29:48.961Z,12.32
2023-02-13T06:32:21.205Z,7.03
2023-02-13T06:34:54.501Z,6.68
2023-02-13T06:37:25.625Z,7.28
2023-02-13T06:39:55.657Z,5.90
2023-02-13T06:42:26.449Z,6.57
2023-02-13T06:44:57.207Z,5.78
2023-02-13T06:47:27.621Z,7.70
2023-02-13T06:49:57.657Z,6.90
2023-02-13T06:52:28.390Z,8.25
2023-02-13T06:54:59.681Z,8.07
2023-02-13T06:57:37.977Z,7.32
2023-02-13T07:00:08.944Z,7.95
2023-02-13T07:02:39.608Z,6.63
2023-02-13T07:05:11.943Z,7.10
2023-02-13T07:07:43.851Z,7.80
2023-02-13T07:10:19.165Z,8.23
2023-02-13T07:13:11.083Z,9.82
2023-02-13T07:15:43.983Z,7.18
2023-02-13T07:18:14.428Z,7.40
2023-02-13T07:20:45.324Z,6.65
2023-02-13T07:23:50.718Z,9.40
2023-02-13T07:26:14.472Z,8.27
2023-02-13T07:28:45.028Z,10.13
2023-02-13T07:31:24.873Z,7.05
2023-02-13T07:34:02.125Z,8.68
2023-02-13T07:36:35.090Z,10.73
2023-02-13T07:39:06.510Z,9.15
2023-02-13T07:41:44.727Z,11.25
2023-02-13T07:44:14.889Z,7.20
2023-02-13T07:46:44.949Z,9.85
2023-02-13T07:49:16.431Z,11.63
2023-02-13T07:52:09.668Z,8.77
2023-02-13T07:54:48.496Z,9.73
2023-02-13T07:57:19.907Z,7.38
2023-02-13T07:59:50.871Z,9.82
2023-02-13T08:02:21.822Z,6.47
2023-02-13T08:04:53.077Z,11.52
2023-02-13T08:07:23.561Z,14.27
2023-02-13T08:10:12.315Z,28.50
2023-02-13T08:12:42.943Z,36.08
2023-02-13T08:15:14.938Z,38.88
2023-02-13T08:17:58.879Z,45.83
2023-02-13T08:20:30.057Z,52.95
2023-02-13T08:23:08.846Z,37.10
2023-02-13T08:25:42.067Z,59.60
2023-02-13T08:28:12.592Z,44.90
2023-02-13T08:30:42.712Z,55.85
2023-02-13T08:33:15.228Z,61.05
2023-02-13T08:35:45.572Z,68.75
2023-02-13T08:38:15.603Z,58.33
2023-02-13T08:40:47.073Z,58.75
2023-02-13T08:43:17.524Z,67.03
2023-02-13T08:46:08.478Z,68.93
2023-02-13T08:48:40.141Z,55.25
2023-02-13T08:51:12.044Z,57.95
2023-02-13T08:53:42.537Z,51.08
2023-02-13T08:56:13.195Z,44.80
2023-02-13T08:58:45.087Z,33.85
2023-02-13T09:01:16.854Z,29.73
2023-02-13T09:03:47.142Z,35.05
2023-02-13T09:06:17.202Z,52.47
2023-02-13T09:08:47.965Z,58.67
2023-02-13T09:11:18.453Z,59.05
2023-02-13T09:13:49.714Z,47.70
2023-02-13T09:16:19.885Z,58.22
2023-02-13T09:18:53.922Z,55.53
2023-02-13T09:21:25.967Z,66.68
2023-02-13T09:23:57.812Z,54.95
2023-02-13T09:26:28.323Z,51.53
2023-02-13T09:28:59.735Z,50.22
2023-02-13T09:31:30.394Z,59.95
2023-02-13T09:34:01.218Z,47.55
2023-02-13T09:36:31.709Z,53.67
2023-02-13T09:39:28.171Z,43.60
2023-02-13T09:42:00.755Z,36.95
2023-02-13T09:44:47.398Z,39.60
2023-02-13T09:47:40.960Z,36.72
2023-02-13T09:50:25.873Z,38.80
2023-02-13T09:52:58.407Z,23.80
2023-02-13T09:55:54.223Z,26.60
2023-02-13T10:01:47.963Z,18.02
2023-02-13T10:04:33.346Z,10.35
2023-02-13T10:07:32.528Z,7.82
2023-02-13T10:10:20.284Z,9.40
2023-02-13T10:16:03.956Z,9.90
2023-02-13T10:18:49.362Z,7.68
2023-02-13T10:21:30.008Z,8.15
2023-02-13T10:24:07.425Z,8.77
2023-02-13T10:26:50.040Z,9.02
2023-02-13T10:29:56.643Z,10.55
2023-02-13T10:32:53.381Z,10.30
2023-02-13T10:35:33.286Z,8.40
2023-02-13T10:38:17.259Z,9.18
2023-02-13T10:41:13.681Z,7.13
2023-02-13T10:44:18.947Z,8.98
2023-02-13T10:47:06.892Z,11.30
2023-02-13T10:50:00.456Z,11.23
2023-02-13T10:52:58.587Z,13.38
2023-02-13T10:55:32.015Z,11.18
2023-02-13T10:58:46.046Z,12.80
2023-02-13T11:01:42.550Z,23.50
2023-02-13T11:04:16.738Z,21.25
2023-02-13T11:07:12.288Z,14.07
2023-02-13T11:09:53.794Z,68.22
2023-02-13T11:12:35.527Z,60.67
2023-02-13T11:15:21.528Z,46.92
2023-02-13T11:17:53.752Z,61.97
2023-02-13T11:20:38.537Z,54.70
2023-02-13T11:23:29.946Z,50.63
2023-02-13T11:26:12.370Z,47.78
2023-02-13T11:28:58.906Z,37.90
2023-02-13T11:31:45.499Z,47.90
2023-02-13T11:34:29.765Z,30.98
2023-02-13T11:37:15.420Z,27.73
2023-02-13T11:39:51.141Z,39.35
2023-02-13T11:42:27.446Z,25.70
2023-02-13T11:45:38.028Z,33.55
2023-02-13T11:48:21.556Z,32.20
2023-02-13T11:50:58.926Z,31.15
2023-02-13T11:53:41.110Z,40.40
2023-02-13T11:56:19.178Z,40.00
2023-02-13T11:59:05.031Z,31.15
2023-02-13T12:01:37.894Z,33.35
2023-02-13T12:04:24.329Z,32.33
2023-02-13T12:07:22.417Z,34.20
2023-02-13T12:10:25.749Z,24.45
2023-02-13T12:13:15.491Z,34.03
2023-02-13T12:16:08.253Z,27.73
2023-02-13T12:18:56.440Z,30.70
2023-02-13T12:22:05.736Z,27.58
2023-02-13T12:25:14.366Z,29.83
2023-02-13T12:27:49.061Z,31.67
2023-02-13T12:30:48.077Z,29.83
2023-02-13T12:33:45.001Z,30.23
2023-02-13T12:36:53.292Z,23.90
2023-02-13T12:39:37.656Z,34.13
2023-02-13T12:42:42.868Z,24.60
2023-02-13T12:45:50.153Z,28.10
2023-02-13T12:49:01.393Z,29.67
2023-02-13T12:51:44.920Z,25.15
2023-02-13T12:54:33.089Z,25.65
2023-02-13T12:57:34.165Z,33.70
2023-02-13T13:00:29.159Z,28.25
2023-02-13T13:03:28.109Z,43.08
2023-02-13T13:06:12.065Z,41.97
2023-02-13T13:09:27.513Z,32.20
2023-02-13T13:12:11.838Z,38.78
2023-02-13T13:15:03.254Z,20.45
2023-02-13T13:17:57.371Z,28.58
2023-02-13T13:20:55.265Z,32.83
2023-02-13T13:23:47.508Z,30.08
2023-02-13T13:26:28.310Z,26.85
2023-02-13T13:29:02.351Z,23.10
2023-02-13T13:31:36.946Z,34.13
2023-02-13T13:34:15.501Z,21.65
2023-02-13T13:36:55.601Z,31.60
2023-02-13T13:39:54.321Z,34.28
2023-02-13T13:42:44.479Z,34.95
2023-02-13T13:45:40.160Z,28.23
2023-02-13T13:48:13.395Z,25.45
2023-02-13T13:50:45.859Z,29.45
2023-02-13T13:53:21.803Z,24.67
2023-02-13T13:55:53.046Z,18.83
2023-02-13T13:58:30.517Z,25.58
2023-02-13T14:01:33.959Z,32.92
2023-02-13T14:04:25.160Z,25.38
2023-02-13T14:07:01.599Z,26.95
2023-02-13T14:09:51.959Z,33.03
2023-02-13T14:12:28.749Z,29.58
2023-02-13T14:15:00.252Z,29.27
2023-02-13T14:17:46.169Z,27.17
2023-02-13T14:20:35.286Z,33.20
2023-02-13T14:23:40.481Z,20.20
2023-02-13T14:26:21.273Z,34.47
2023-02-13T14:28:53.167Z,22.88
2023-02-13T14:31:43.989Z,29.10
2023-02-13T14:34:17.140Z,23.98
2023-02-13T14:37:22.038Z,32.50
2023-02-13T14:40:15.125Z,28.55
2023-02-13T14:42:49.798Z,32.83
2023-02-13T14:47:57.020Z,21.48
2023-02-13T14:50:49.564Z,26.95
2023-02-13T14:53:34.341Z,37.92
2023-02-13T14:56:14.323Z,26.48
2023-02-13T14:59:12.620Z,26.38
2023-02-13T15:02:02.336Z,23.35
2023-02-13T15:04:49.969Z,28.35
2023-02-13T15:07:26.716Z,25.98
2023-02-13T15:10:25.904Z,26.98
2023-02-13T15:13:02.069Z,26.73
2023-02-13T15:15:38.959Z,31.65
2023-02-13T15:18:35.244Z,25.52
2023-02-13T15:21:34.182Z,30.30
2023-02-13T15:24:05.912Z,23.70
2023-02-13T15:26:37.613Z,26.08
2023-02-13T15:29:27.754Z,31.67
2023-02-13T15:32:00.672Z,25.95
2023-02-13T15:34:37.247Z,34.03
2023-02-13T15:37:11.083Z,29.55
2023-02-13T15:39:44.819Z,24.52
2023-02-13T15:42:16.398Z,26.40
2023-02-13T15:44:51.341Z,24.27
2023-02-13T15:47:35.140Z,26.25
2023-02-13T15:50:09.283Z,28.20
2023-02-13T15:52:41.439Z,32.72
2023-02-13T15:55:29.765Z,28.95
2023-02-13T15:58:02.933Z,33.83
2023-02-13T16:00:40.729Z,19.52
2023-02-13T16:03:19.429Z,20.73
2023-02-13T16:05:51.384Z,34.40
2023-02-13T16:08:41.008Z,28.85
2023-02-13T16:11:32.761Z,29.77
2023-02-13T16:14:26.158Z,26.30
2023-02-13T16:17:11.160Z,20.27
2023-02-13T16:19:57.608Z,21.77
2023-02-13T16:22:38.860Z,29.70
2023-02-13T16:25:27.235Z,25.15
2023-02-13T16:28:21.901Z,24.13
2023-02-13T16:31:02.370Z,27.17
2023-02-13T16:33:39.351Z,27.73
2023-02-13T16:36:13.426Z,36.47
2023-02-13T16:38:50.343Z,35.47
2023-02-13T16:41:30.847Z,29.98
2023-02-13T16:44:31.508Z,31.50
2023-02-13T16:47:08.869Z,20.17
2023-02-13T16:49:39.907Z,30.15
2023-02-13T16:52:24.336Z,34.38
2023-02-13T16:55:08.416Z,28.73
2023-02-13T16:57:49.488Z,29.75
2023-02-13T17:00:31.997Z,28.17
2023-02-13T17:03:13.208Z,32.08
2023-02-13T17:05:44.215Z,27.25
2023-02-13T17:08:19.190Z,39.30
2023-02-13T17:13:54.623Z,25.70
2023-02-13T17:16:25.023Z,27.92
2023-02-13T17:18:55.577Z,24.92
2023-02-13T17:21:26.688Z,36.22
2023-02-13T17:23:57.810Z,30.05
2023-02-13T17:26:29.230Z,28.35
2023-02-13T17:29:01.197Z,30.85
2023-02-13T17:31:34.940Z,28.90
2023-02-13T17:34:09.948Z,19.08
2023-02-13T17:36:41.534Z,25.77
2023-02-13T17:39:11.943Z,28.48
2023-02-13T17:41:44.911Z,21.83
2023-02-13T17:44:16.308Z,39.67
2023-02-13T17:46:47.755Z,30.67
2023-02-13T17:49:36.811Z,40.83
2023-02-13T17:52:08.567Z,22.95
2023-02-13T17:54:39.626Z,38.55
2023-02-13T17:57:33.168Z,28.05
2023-02-13T18:00:10.702Z,39.13
2023-02-13T18:02:49.157Z,33.17
2023-02-13T18:05:24.053Z,31.73
2023-02-13T18:07:54.552Z,31.65
2023-02-13T18:10:54.890Z,39.95
2023-02-13T18:13:28.196Z,32.95
2023-02-13T18:15:58.531Z,23.77
2023-02-13T18:18:30.483Z,29.80
2023-02-13T18:21:01.424Z,30.73
2023-02-13T18:23:32.818Z,29.73
2023-02-13T18:26:11.159Z,27.40
2023-02-13T18:28:41.732Z,33.03
2023-02-13T18:31:12.501Z,30.80
2023-02-13T18:33:43.672Z,31.70
2023-02-13T18:36:14.822Z,35.13
2023-02-13T18:38:45.446Z,31.55
2023-02-13T18:41:16.271Z,37.08
2023-02-13T18:43:46.485Z,38.85
2023-02-13T18:46:17.576Z,23.90
2023-02-13T18:48:49.198Z,29.15
2023-02-13T18:51:20.285Z,27.02
2023-02-13T18:53:50.913Z,39.50
2023-02-13T18:56:26.267Z,36.70
2023-02-13T18:58:57.486Z,41.13
2023-02-13T19:01:31.711Z,33.05
2023-02-13T19:04:05.012Z,41.05
2023-02-13T19:06:36.396Z,45.30
2023-02-13T19:09:07.304Z,34.55
2023-02-13T19:11:40.503Z,38.85
2023-02-13T19:14:14.774Z,38.45
2023-02-13T19:16:45.744Z,45.45
2023-02-13T19:19:15.884Z,37.25
2023-02-13T19:21:46.268Z,32.72
2023-02-13T19:24:16.784Z,29.92
2023-02-13T19:26:48.249Z,35.40
2023-02-13T19:29:20.182Z,38.78
2023-02-13T19:31:51.363Z,36.08
2023-02-13T19:34:22.404Z,36.05
2023-02-13T19:36:54.030Z,30.80
2023-02-13T19:39:34.506Z,42.50
2023-02-13T19:42:26.625Z,54.25
2023-02-13T19:45:00.108Z,41.92
2023-02-13T19:47:32.182Z,40.53
2023-02-13T19:50:06.373Z,43.80
2023-02-13T19:52:38.034Z,31.15
2023-02-13T19:55:13.130Z,39.42
2023-02-13T19:57:44.966Z,32.88
2023-02-13T20:00:22.661Z,33.28
2023-02-13T20:02:57.232Z,37.90
2023-02-13T20:05:28.715Z,37.22
2023-02-13T20:08:00.310Z,41.55
2023-02-13T20:10:30.739Z,42.08
2023-02-13T20:13:01.758Z,44.08
2023-02-13T20:15:45.771Z,30.10
2023-02-13T20:18:23.778Z,42.80
2023-02-13T20:20:59.469Z,34.80
2023-02-13T20:23:31.488Z,41.47
2023-02-13T20:26:06.896Z,38.53
2023-02-13T20:28:46.780Z,35.53
2023-02-13T20:31:22.869Z,38.05
2023-02-13T20:33:55.065Z,42.50
2023-02-13T20:36:29.800Z,36.45
2023-02-13T20:39:09.715Z,41.75
2023-02-13T20:41:40.808Z,42.25
2023-02-13T20:44:18.644Z,40.53
2023-02-13T20:46:58.149Z,37.33
2023-02-13T20:49:36.170Z,40.75
2023-02-13T20:52:09.287Z,44.53
2023-02-13T20:54:50.153Z,40.17
2023-02-13T20:57:21.711Z,47.10
2023-02-13T21:00:08.786Z,38.88
2023-02-13T21:02:41.291Z,50.10
2023-02-13T21:05:15.880Z,43.53
2023-02-13T21:07:49.575Z,46.35
2023-02-13T21:10:22.871Z,40.75
2023-02-13T21:12:54.562Z,43.35
2023-02-13T21:15:27.484Z,42.60
2023-02-13T21:18:02.960Z,44.13
2023-02-13T21:20:34.761Z,56.30
2023-02-13T21:23:10.460Z,34.45
2023-02-13T21:25:42.289Z,47.95
2023-02-13T21:28:15.512Z,47.15
2023-02-13T21:30:48.562Z,39.22
2023-02-13T21:33:20.563Z,43.40
2023-02-13T21:35:53.775Z,41.30
2023-02-13T21:38:26.018Z,60.83
2023-02-13T21:41:00.947Z,37.10
2023-02-13T21:43:31.659Z,40.58
2023-02-13T21:46:31.877Z,47.67
2023-02-13T21:49:11.022Z,45.25
2023-02-13T21:51:48.941Z,37.28
2023-02-13T21:54:22.941Z,47.03
2023-02-13T21:56:58.204Z,48.70
2023-02-13T21:59:34.508Z,43.22
2023-02-13T22:02:17.530Z,47.50
2023-02-13T22:04:50.484Z,41.42
2023-02-13T22:07:22.986Z,46.20
2023-02-13T22:09:55.184Z,67.93
2023-02-13T22:12:26.726Z,71.22
2023-02-13T22:14:59.772Z,57.05
2023-02-13T22:17:35.710Z,58.08
2023-02-13T22:44:26.171Z,48.38
2023-02-13T22:46:59.575Z,54.95
2023-02-13T22:49:31.841Z,50.47
2023-02-13T22:52:03.512Z,56.08
2023-02-13T22:54:36.461Z,57.03
2023-02-13T22:57:10.247Z,50.97
2023-02-13T22:59:45.560Z,44.35
2023-02-13T23:02:19.599Z,71.57
2023-02-13T23:05:15.626Z,62.25
2023-02-13T23:07:53.039Z,44.92
2023-02-13T23:10:28.402Z,44.42
2023-02-13T23:13:01.083Z,47.53
2023-02-13T23:15:35.134Z,46.60
2023-02-13T23:18:17.818Z,54.40
2023-02-13T23:20:49.046Z,52.38
2023-02-13T23:23:19.483Z,47.67
2023-02-13T23:25:50.838Z,64.13
2023-02-13T23:28:21.233Z,59.28
2023-02-13T23:30:54.450Z,46.33
2023-02-13T23:33:27.518Z,48.17
2023-02-13T23:36:00.678Z,48.17
2023-02-13T23:38:34.965Z,68.40
2023-02-13T23:41:15.323Z,67.88
2023-02-13T23:43:47.570Z,73.47
2023-02-13T23:46:25.316Z,51.72
2023-02-13T23:48:57.219Z,59.53
2023-02-13T23:51:29.017Z,70.68
2023-02-13T23:53:59.838Z,70.93
2023-02-13T23:56:31.112Z,80.93
2023-02-13T23:59:01.410Z,73.05
